Garland, TX (75040)

3:47 PM CST on February 06, 2016 (GMT -0600)
Shorehaven | | Change Station
CLOSE
Current Station
Personal Weather Station
Location: Garland, TX
Elevation: 550 ft
Nearby Weather Stations
Active Advisory: Flood Warning

Elev 550 ft 32.92 °N, 96.63 °W | Updated 0 second ago

Mostly Cloudy
Mostly Cloudy
52.9 °F
Feels Like 52.9 °F
N
3.5
Wind Variable Wind from NNW
Gusts 0.0 mph

Today
High -- | Low -- °F
--% Chance of Precip.
Yesterday
High -- | Low -- °F
Precip. -- in
Pressure 30.33 in
Visibility 10.0 miles
Clouds Scattered Clouds 3900 ft
Dew Point 27 °F
Humidity 36%
Rainfall 0.00 in
Snow Depth Not available.
7:18 AM 6:03 PM
Waning Crescent, 4% visible
METAR KF46 062135Z AUTO 13003KT 10SM SCT039 11/01 A3033 RMK AO2 T01140013
Pressure 30.33 in
Visibility 10.0 miles
Clouds Scattered Clouds 3900 ft
Dew Point 27 °F
Humidity 36%
Rainfall 0.00 in
Snow Depth Not available.
7:18 AM 6:03 PM
Waning Crescent, 4% visible
METAR KF46 062135Z AUTO 13003KT 10SM SCT039 11/01 A3033 RMK AO2 T01140013

10-Day Weather Forecast

Almanac

Astronomy

Feb. 06, 2016 Rise Set
Actual Time
Civil Twilight
Nautical Twilight
Astronomical Twilight
Moon
Length of Visible Light
Length of Day
Tomorrow will be .
, % of the Moon is Illuminated

Today's Extremes

State Highs State Lows

Community

WunderPhotos

Upload Photos

1,891,051 photos uploaded!

WunderBlog® & News

Nearby

Air Quality

  Air Quality AQ Index Pollutant
Not available.

Snow Depth

Station Depth Elevation

Earthquake Activity

City Distance Mag. Time & Date
Minimum magnitude displayed is 2.5.

Coastal Water Temperatures

Place Temperature

Stations

Nearby Weather Stations

Station Location Temp. Windchill Dew Point Humidity Wind Precip. Elev Updated Type
                   

Watches & Warnings

Flood Warning
Issued: 1:26 PM CST Feb. 6, 2016 – National Weather Service

The Flood Warning continues for
the Elm Fork Trinity River near Carrollton.
* At 1215 PM Saturday the stage was 8.39 feet.
* Flood stage is 8 feet.
* Minor flooding is occurring and minor flooding is forecast.
* Forecast... the river will remain near 8.4 feet for the next few
days.
* At 8 feet, minor flooding will occur downstream from the gage.


Lat... Lon 3300 9700 3287 9699 3287 9687 3300 9688